sensor_id;sensor_type;location;lat;lon;timestamp;P1;durP1;ratioP1;P2;durP2;ratioP2
7027;SDS011;3555;53.248;10.336;2022-09-12T00:01:02;4.30;;;1.60;;
7027;SDS011;3555;53.248;10.336;2022-09-12T00:03:33;2.25;;;1.45;;
7027;SDS011;3555;53.248;10.336;2022-09-12T00:06:00;1.70;;;1.50;;
7027;SDS011;3555;53.248;10.336;2022-09-12T00:08:32;2.78;;;1.70;;
7027;SDS011;3555;53.248;10.336;2022-09-12T00:11:01;3.67;;;1.63;;
7027;SDS011;3555;53.248;10.336;2022-09-12T00:13:30;3.15;;;1.88;;
7027;SDS011;3555;53.248;10.336;2022-09-12T00:15:57;1.75;;;1.65;;
7027;SDS011;3555;53.248;10.336;2022-09-12T00:18:24;4.20;;;2.00;;
7027;SDS011;3555;53.248;10.336;2022-09-12T00:20:50;3.65;;;1.95;;
7027;SDS011;3555;53.248;10.336;2022-09-12T00:23:17;2.20;;;2.00;;
7027;SDS011;3555;53.248;10.336;2022-09-12T00:25:45;3.00;;;1.77;;
7027;SDS011;3555;53.248;10.336;2022-09-12T00:28:14;1.98;;;1.77;;
7027;SDS011;3555;53.248;10.336;2022-09-12T00:30:43;3.45;;;1.90;;
7027;SDS011;3555;53.248;10.336;2022-09-12T00:33:11;4.60;;;1.95;;
7027;SDS011;3555;53.248;10.336;2022-09-12T00:35:42;3.33;;;1.88;;
7027;SDS011;3555;53.248;10.336;2022-09-12T00:38:10;1.52;;;1.42;;
7027;SDS011;3555;53.248;10.336;2022-09-12T00:40:36;2.25;;;2.05;;
7027;SDS011;3555;53.248;10.336;2022-09-12T00:43:04;2.30;;;2.10;;
7027;SDS011;3555;53.248;10.336;2022-09-12T00:45:33;3.05;;;1.80;;
7027;SDS011;3555;53.248;10.336;2022-09-12T00:48:00;1.70;;;1.60;;
7027;SDS011;3555;53.248;10.336;2022-09-12T00:50:29;2.10;;;1.50;;
7027;SDS011;3555;53.248;10.336;2022-09-12T00:52:58;3.67;;;1.63;;
7027;SDS011;3555;53.248;10.336;2022-09-12T00:55:30;2.00;;;1.75;;
7027;SDS011;3555;53.248;10.336;2022-09-12T00:58:01;3.17;;;1.63;;
7027;SDS011;3555;53.248;10.336;2022-09-12T01:00:33;1.60;;;1.50;;
7027;SDS011;3555;53.248;10.336;2022-09-12T01:03:01;2.80;;;1.40;;
7027;SDS011;3555;53.248;10.336;2022-09-12T01:05:30;4.77;;;1.80;;
7027;SDS011;3555;53.248;10.336;2022-09-12T01:08:00;2.00;;;1.40;;
7027;SDS011;3555;53.248;10.336;2022-09-12T01:10:29;1.80;;;1.70;;
7027;SDS011;3555;53.248;10.336;2022-09-12T01:12:59;2.95;;;1.85;;
7027;SDS011;3555;53.248;10.336;2022-09-12T01:15:26;1.70;;;1.60;;
7027;SDS011;3555;53.248;10.336;2022-09-12T01:17:58;1.75;;;1.50;;
7027;SDS011;3555;53.248;10.336;2022-09-12T01:20:50;3.07;;;1.80;;
7027;SDS011;3555;53.248;10.336;2022-09-12T01:23:36;2.63;;;1.70;;
7027;SDS011;3555;53.248;10.336;2022-09-12T01:29:54;2.67;;;1.80;;
7027;SDS011;3555;53.248;10.336;2022-09-12T01:32:47;3.00;;;1.87;;
7027;SDS011;3555;53.248;10.336;2022-09-12T01:35:32;1.90;;;1.70;;
7027;SDS011;3555;53.248;10.336;2022-09-12T01:38:08;2.77;;;1.80;;
7027;SDS011;3555;53.248;10.336;2022-09-12T01:40:41;2.13;;;1.67;;
7027;SDS011;3555;53.248;10.336;2022-09-12T01:43:16;2.90;;;1.90;;
7027;SDS011;3555;53.248;10.336;2022-09-12T01:45:52;5.70;;;1.90;;
7027;SDS011;3555;53.248;10.336;2022-09-12T01:48:23;3.50;;;1.67;;
7027;SDS011;3555;53.248;10.336;2022-09-12T01:50:55;2.53;;;1.77;;
7027;SDS011;3555;53.248;10.336;2022-09-12T01:53:27;2.60;;;1.67;;
7027;SDS011;3555;53.248;10.336;2022-09-12T01:55:59;1.60;;;1.50;;
7027;SDS011;3555;53.248;10.336;2022-09-12T01:58:32;2.33;;;1.50;;
7027;SDS011;3555;53.248;10.336;2022-09-12T02:01:06;1.90;;;1.53;;
7027;SDS011;3555;53.248;10.336;2022-09-12T02:03:40;2.57;;;1.50;;
7027;SDS011;3555;53.248;10.336;2022-09-12T02:06:11;2.90;;;1.60;;
7027;SDS011;3555;53.248;10.336;2022-09-12T02:08:45;3.30;;;1.57;;
7027;SDS011;3555;53.248;10.336;2022-09-12T02:11:14;2.63;;;1.90;;
7027;SDS011;3555;53.248;10.336;2022-09-12T02:13:41;2.53;;;1.50;;
7027;SDS011;3555;53.248;10.336;2022-09-12T02:16:12;2.67;;;1.90;;
7027;SDS011;3555;53.248;10.336;2022-09-12T02:18:44;1.90;;;1.67;;
7027;SDS011;3555;53.248;10.336;2022-09-12T02:21:12;1.73;;;1.57;;
7027;SDS011;3555;53.248;10.336;2022-09-12T02:23:40;3.17;;;1.70;;
7027;SDS011;3555;53.248;10.336;2022-09-12T02:26:12;3.63;;;2.20;;
7027;SDS011;3555;53.248;10.336;2022-09-12T02:28:44;1.73;;;1.63;;
7027;SDS011;3555;53.248;10.336;2022-09-12T02:31:13;1.97;;;1.70;;
7027;SDS011;3555;53.248;10.336;2022-09-12T02:33:49;1.70;;;1.60;;
7027;SDS011;3555;53.248;10.336;2022-09-12T02:36:27;2.80;;;1.60;;
7027;SDS011;3555;53.248;10.336;2022-09-12T02:38:59;1.50;;;1.40;;
7027;SDS011;3555;53.248;10.336;2022-09-12T02:41:26;1.60;;;1.50;;
7027;SDS011;3555;53.248;10.336;2022-09-12T02:43:53;2.93;;;1.50;;
7027;SDS011;3555;53.248;10.336;2022-09-12T02:46:23;1.40;;;1.30;;
7027;SDS011;3555;53.248;10.336;2022-09-12T02:48:53;1.60;;;1.50;;
7027;SDS011;3555;53.248;10.336;2022-09-12T02:51:22;1.80;;;1.50;;
7027;SDS011;3555;53.248;10.336;2022-09-12T02:53:50;2.13;;;1.60;;
7027;SDS011;3555;53.248;10.336;2022-09-12T02:56:20;3.03;;;1.60;;
7027;SDS011;3555;53.248;10.336;2022-09-12T02:58:50;2.03;;;1.60;;
7027;SDS011;3555;53.248;10.336;2022-09-12T03:01:24;1.63;;;1.53;;
7027;SDS011;3555;53.248;10.336;2022-09-12T03:06:58;2.10;;;1.33;;
7027;SDS011;3555;53.248;10.336;2022-09-12T03:09:36;2.37;;;1.20;;
7027;SDS011;3555;53.248;10.336;2022-09-12T03:12:13;1.93;;;1.60;;
7027;SDS011;3555;53.248;10.336;2022-09-12T03:14:53;2.07;;;1.40;;
7027;SDS011;3555;53.248;10.336;2022-09-12T03:17:38;2.13;;;1.50;;
7027;SDS011;3555;53.248;10.336;2022-09-12T03:20:13;1.50;;;1.40;;
7027;SDS011;3555;53.248;10.336;2022-09-12T03:22:46;4.93;;;1.67;;
7027;SDS011;3555;53.248;10.336;2022-09-12T03:25:19;3.43;;;1.50;;
7027;SDS011;3555;53.248;10.336;2022-09-12T03:27:52;2.73;;;1.40;;
7027;SDS011;3555;53.248;10.336;2022-09-12T03:30:23;3.20;;;1.60;;
7027;SDS011;3555;53.248;10.336;2022-09-12T03:32:53;2.87;;;1.50;;
7027;SDS011;3555;53.248;10.336;2022-09-12T03:35:21;3.60;;;1.50;;
7027;SDS011;3555;53.248;10.336;2022-09-12T03:37:49;4.30;;;1.60;;
7027;SDS011;3555;53.248;10.336;2022-09-12T03:40:17;1.70;;;1.60;;
7027;SDS011;3555;53.248;10.336;2022-09-12T03:42:44;2.10;;;1.30;;
7027;SDS011;3555;53.248;10.336;2022-09-12T03:45:11;4.10;;;1.30;;
7027;SDS011;3555;53.248;10.336;2022-09-12T03:47:38;1.63;;;1.40;;
7027;SDS011;3555;53.248;10.336;2022-09-12T03:50:07;2.20;;;1.23;;
7027;SDS011;3555;53.248;10.336;2022-09-12T03:52:34;1.90;;;1.57;;
7027;SDS011;3555;53.248;10.336;2022-09-12T03:55:01;2.60;;;1.40;;
7027;SDS011;3555;53.248;10.336;2022-09-12T03:57:28;1.70;;;1.20;;
7027;SDS011;3555;53.248;10.336;2022-09-12T03:59:54;2.80;;;1.40;;
7027;SDS011;3555;53.248;10.336;2022-09-12T04:02:21;1.93;;;1.60;;
7027;SDS011;3555;53.248;10.336;2022-09-12T04:04:48;2.03;;;1.60;;
7027;SDS011;3555;53.248;10.336;2022-09-12T04:07:16;1.50;;;1.40;;
7027;SDS011;3555;53.248;10.336;2022-09-12T04:09:43;1.60;;;1.33;;
7027;SDS011;3555;53.248;10.336;2022-09-12T04:12:10;2.40;;;1.60;;
7027;SDS011;3555;53.248;10.336;2022-09-12T04:14:38;4.10;;;1.60;;
7027;SDS011;3555;53.248;10.336;2022-09-12T04:17:04;1.90;;;1.60;;
7027;SDS011;3555;53.248;10.336;2022-09-12T04:19:31;2.10;;;1.60;;
7027;SDS011;3555;53.248;10.336;2022-09-12T04:21:58;2.87;;;1.50;;
7027;SDS011;3555;53.248;10.336;2022-09-12T04:24:26;3.63;;;1.57;;
7027;SDS011;3555;53.248;10.336;2022-09-12T04:26:53;2.67;;;1.37;;
7027;SDS011;3555;53.248;10.336;2022-09-12T04:29:20;4.73;;;2.20;;
7027;SDS011;3555;53.248;10.336;2022-09-12T04:31:47;3.53;;;1.57;;
7027;SDS011;3555;53.248;10.336;2022-09-12T04:34:13;2.00;;;1.70;;
7027;SDS011;3555;53.248;10.336;2022-09-12T04:36:40;1.73;;;1.60;;
7027;SDS011;3555;53.248;10.336;2022-09-12T04:39:09;2.63;;;1.80;;
7027;SDS011;3555;53.248;10.336;2022-09-12T04:41:38;1.90;;;1.70;;
7027;SDS011;3555;53.248;10.336;2022-09-12T04:44:06;4.20;;;2.20;;
7027;SDS011;3555;53.248;10.336;2022-09-12T04:46:39;1.90;;;1.63;;
7027;SDS011;3555;53.248;10.336;2022-09-12T04:49:08;3.70;;;1.77;;
7027;SDS011;3555;53.248;10.336;2022-09-12T04:51:36;3.53;;;2.03;;
7027;SDS011;3555;53.248;10.336;2022-09-12T04:54:05;1.97;;;1.77;;
7027;SDS011;3555;53.248;10.336;2022-09-12T04:56:35;2.93;;;1.87;;
7027;SDS011;3555;53.248;10.336;2022-09-12T04:59:04;3.03;;;1.60;;
7027;SDS011;3555;53.248;10.336;2022-09-12T05:01:33;1.93;;;1.73;;
7027;SDS011;3555;53.248;10.336;2022-09-12T05:04:00;2.63;;;1.80;;
7027;SDS011;3555;53.248;10.336;2022-09-12T05:06:28;2.50;;;1.70;;
7027;SDS011;3555;53.248;10.336;2022-09-12T05:08:56;2.23;;;1.67;;
7027;SDS011;3555;53.248;10.336;2022-09-12T05:11:25;4.23;;;1.80;;
7027;SDS011;3555;53.248;10.336;2022-09-12T05:13:54;3.57;;;1.90;;
7027;SDS011;3555;53.248;10.336;2022-09-12T05:16:21;2.77;;;1.90;;
7027;SDS011;3555;53.248;10.336;2022-09-12T05:18:48;2.80;;;2.03;;
7027;SDS011;3555;53.248;10.336;2022-09-12T05:21:16;7.23;;;3.30;;
7027;SDS011;3555;53.248;10.336;2022-09-12T05:23:44;6.13;;;3.30;;
7027;SDS011;3555;53.248;10.336;2022-09-12T05:26:12;3.60;;;1.70;;
7027;SDS011;3555;53.248;10.336;2022-09-12T05:28:39;2.10;;;1.90;;
7027;SDS011;3555;53.248;10.336;2022-09-12T05:31:09;2.53;;;1.90;;
7027;SDS011;3555;53.248;10.336;2022-09-12T05:33:38;2.30;;;1.93;;
7027;SDS011;3555;53.248;10.336;2022-09-12T05:36:08;2.20;;;1.90;;
7027;SDS011;3555;53.248;10.336;2022-09-12T05:38:36;2.67;;;2.00;;
7027;SDS011;3555;53.248;10.336;2022-09-12T05:41:03;2.97;;;2.20;;
7027;SDS011;3555;53.248;10.336;2022-09-12T05:43:31;2.27;;;1.90;;
7027;SDS011;3555;53.248;10.336;2022-09-12T05:46:01;4.03;;;1.80;;
7027;SDS011;3555;53.248;10.336;2022-09-12T05:48:29;1.70;;;1.60;;
7027;SDS011;3555;53.248;10.336;2022-09-12T05:50:58;3.53;;;1.97;;
7027;SDS011;3555;53.248;10.336;2022-09-12T05:53:26;3.13;;;1.73;;
7027;SDS011;3555;53.248;10.336;2022-09-12T05:56:00;2.83;;;2.00;;
7027;SDS011;3555;53.248;10.336;2022-09-12T05:58:28;3.17;;;1.93;;
7027;SDS011;3555;53.248;10.336;2022-09-12T06:00:55;2.10;;;1.90;;
7027;SDS011;3555;53.248;10.336;2022-09-12T06:03:26;2.93;;;1.90;;
7027;SDS011;3555;53.248;10.336;2022-09-12T06:05:54;2.57;;;1.80;;
7027;SDS011;3555;53.248;10.336;2022-09-12T06:08:21;2.30;;;2.10;;
7027;SDS011;3555;53.248;10.336;2022-09-12T06:10:48;2.65;;;1.90;;
7027;SDS011;3555;53.248;10.336;2022-09-12T06:13:14;3.72;;;2.13;;
7027;SDS011;3555;53.248;10.336;2022-09-12T06:15:41;2.63;;;2.00;;
7027;SDS011;3555;53.248;10.336;2022-09-12T06:18:08;2.05;;;1.83;;
7027;SDS011;3555;53.248;10.336;2022-09-12T06:20:35;2.40;;;2.05;;
7027;SDS011;3555;53.248;10.336;2022-09-12T06:23:03;3.05;;;2.03;;
7027;SDS011;3555;53.248;10.336;2022-09-12T06:25:30;2.55;;;1.98;;
7027;SDS011;3555;53.248;10.336;2022-09-12T06:27:57;2.60;;;1.73;;
7027;SDS011;3555;53.248;10.336;2022-09-12T06:30:24;1.95;;;1.70;;
7027;SDS011;3555;53.248;10.336;2022-09-12T06:32:51;2.88;;;1.92;;
7027;SDS011;3555;53.248;10.336;2022-09-12T06:35:17;3.80;;;1.65;;
7027;SDS011;3555;53.248;10.336;2022-09-12T06:37:45;2.10;;;1.90;;
7027;SDS011;3555;53.248;10.336;2022-09-12T06:40:13;3.60;;;2.00;;
7027;SDS011;3555;53.248;10.336;2022-09-12T06:42:40;2.17;;;1.90;;
7027;SDS011;3555;53.248;10.336;2022-09-12T06:45:08;3.40;;;2.13;;
7027;SDS011;3555;53.248;10.336;2022-09-12T06:47:35;3.40;;;2.47;;
7027;SDS011;3555;53.248;10.336;2022-09-12T06:50:02;4.82;;;2.40;;
7027;SDS011;3555;53.248;10.336;2022-09-12T06:52:30;2.75;;;2.42;;
7027;SDS011;3555;53.248;10.336;2022-09-12T06:54:57;3.42;;;2.70;;
7027;SDS011;3555;53.248;10.336;2022-09-12T06:57:25;4.18;;;2.60;;
7027;SDS011;3555;53.248;10.336;2022-09-12T06:59:54;4.70;;;2.90;;
7027;SDS011;3555;53.248;10.336;2022-09-12T07:02:21;2.97;;;2.78;;
7027;SDS011;3555;53.248;10.336;2022-09-12T07:04:49;2.97;;;2.67;;
7027;SDS011;3555;53.248;10.336;2022-09-12T07:07:16;4.05;;;2.90;;
7027;SDS011;3555;53.248;10.336;2022-09-12T07:09:43;3.00;;;2.60;;
7027;SDS011;3555;53.248;10.336;2022-09-12T07:12:10;2.92;;;2.65;;
7027;SDS011;3555;53.248;10.336;2022-09-12T07:14:38;3.40;;;3.10;;
7027;SDS011;3555;53.248;10.336;2022-09-12T07:17:05;4.35;;;3.17;;
7027;SDS011;3555;53.248;10.336;2022-09-12T07:19:32;2.75;;;2.53;;
7027;SDS011;3555;53.248;10.336;2022-09-12T07:21:59;3.38;;;2.75;;
7027;SDS011;3555;53.248;10.336;2022-09-12T07:24:26;3.85;;;3.00;;
7027;SDS011;3555;53.248;10.336;2022-09-12T07:26:52;3.33;;;3.03;;
7027;SDS011;3555;53.248;10.336;2022-09-12T07:29:20;3.10;;;2.80;;
7027;SDS011;3555;53.248;10.336;2022-09-12T07:31:48;2.80;;;2.58;;
7027;SDS011;3555;53.248;10.336;2022-09-12T07:34:15;3.15;;;2.60;;
7027;SDS011;3555;53.248;10.336;2022-09-12T07:36:41;3.05;;;2.75;;
7027;SDS011;3555;53.248;10.336;2022-09-12T07:39:08;2.88;;;2.58;;
7027;SDS011;3555;53.248;10.336;2022-09-12T07:41:36;5.10;;;3.00;;
7027;SDS011;3555;53.248;10.336;2022-09-12T07:44:03;3.10;;;2.50;;
7027;SDS011;3555;53.248;10.336;2022-09-12T07:46:30;3.55;;;2.20;;
7027;SDS011;3555;53.248;10.336;2022-09-12T07:48:59;3.03;;;2.60;;
7027;SDS011;3555;53.248;10.336;2022-09-12T07:51:28;4.65;;;2.85;;
7027;SDS011;3555;53.248;10.336;2022-09-12T07:53:55;2.60;;;2.40;;
7027;SDS011;3555;53.248;10.336;2022-09-12T07:56:22;3.55;;;2.47;;
7027;SDS011;3555;53.248;10.336;2022-09-12T07:58:51;2.80;;;2.40;;
7027;SDS011;3555;53.248;10.336;2022-09-12T08:01:18;3.60;;;2.63;;
7027;SDS011;3555;53.248;10.336;2022-09-12T08:03:47;3.00;;;2.42;;
7027;SDS011;3555;53.248;10.336;2022-09-12T08:06:20;3.03;;;2.42;;
7027;SDS011;3555;53.248;10.336;2022-09-12T08:08:48;3.72;;;2.22;;
7027;SDS011;3555;53.248;10.336;2022-09-12T08:11:16;2.20;;;2.00;;
7027;SDS011;3555;53.248;10.336;2022-09-12T08:13:44;2.63;;;2.13;;
7027;SDS011;3555;53.248;10.336;2022-09-12T08:16:12;3.08;;;2.30;;
7027;SDS011;3555;53.248;10.336;2022-09-12T08:18:40;4.03;;;1.83;;
7027;SDS011;3555;53.248;10.336;2022-09-12T08:21:09;2.78;;;2.22;;
7027;SDS011;3555;53.248;10.336;2022-09-12T08:23:40;2.33;;;1.92;;
7027;SDS011;3555;53.248;10.336;2022-09-12T08:26:08;3.80;;;2.03;;
7027;SDS011;3555;53.248;10.336;2022-09-12T08:28:36;2.30;;;2.10;;
7027;SDS011;3555;53.248;10.336;2022-09-12T08:31:05;2.63;;;2.28;;
7027;SDS011;3555;53.248;10.336;2022-09-12T08:33:33;2.10;;;1.90;;
7027;SDS011;3555;53.248;10.336;2022-09-12T08:36:01;2.78;;;2.47;;
7027;SDS011;3555;53.248;10.336;2022-09-12T08:38:29;2.40;;;2.10;;
7027;SDS011;3555;53.248;10.336;2022-09-12T08:40:59;2.60;;;2.10;;
7027;SDS011;3555;53.248;10.336;2022-09-12T08:43:32;2.28;;;1.80;;
7027;SDS011;3555;53.248;10.336;2022-09-12T08:46:16;2.35;;;1.90;;
7027;SDS011;3555;53.248;10.336;2022-09-12T08:48:45;2.88;;;2.33;;
7027;SDS011;3555;53.248;10.336;2022-09-12T08:51:14;2.08;;;1.42;;
7027;SDS011;3555;53.248;10.336;2022-09-12T08:53:44;2.17;;;1.75;;
7027;SDS011;3555;53.248;10.336;2022-09-12T08:56:15;2.00;;;1.80;;
7027;SDS011;3555;53.248;10.336;2022-09-12T08:58:43;1.80;;;1.48;;
7027;SDS011;3555;53.248;10.336;2022-09-12T09:01:12;2.28;;;1.85;;
7027;SDS011;3555;53.248;10.336;2022-09-12T09:03:55;3.60;;;1.90;;
7027;SDS011;3555;53.248;10.336;2022-09-12T09:06:50;2.25;;;1.95;;
7027;SDS011;3555;53.248;10.336;2022-09-12T09:09:29;2.40;;;2.20;;
7027;SDS011;3555;53.248;10.336;2022-09-12T09:12:11;2.13;;;1.60;;
7027;SDS011;3555;53.248;10.336;2022-09-12T09:17:37;2.25;;;1.90;;
7027;SDS011;3555;53.248;10.336;2022-09-12T09:20:06;2.50;;;2.00;;
7027;SDS011;3555;53.248;10.336;2022-09-12T09:22:41;4.50;;;1.73;;
7027;SDS011;3555;53.248;10.336;2022-09-12T09:25:13;1.88;;;1.67;;
7027;SDS011;3555;53.248;10.336;2022-09-12T09:27:47;3.15;;;1.60;;
7027;SDS011;3555;53.248;10.336;2022-09-12T09:30:21;1.92;;;1.40;;
7027;SDS011;3555;53.248;10.336;2022-09-12T09:32:49;2.55;;;1.40;;
7027;SDS011;3555;53.248;10.336;2022-09-12T09:35:20;1.52;;;1.40;;
7027;SDS011;3555;53.248;10.336;2022-09-12T09:38:06;1.55;;;1.25;;
7027;SDS011;3555;53.248;10.336;2022-09-12T09:40:44;1.77;;;1.40;;
7027;SDS011;3555;53.248;10.336;2022-09-12T09:43:20;1.80;;;1.40;;
7027;SDS011;3555;53.248;10.336;2022-09-12T09:45:49;1.70;;;1.20;;
7027;SDS011;3555;53.248;10.336;2022-09-12T09:48:18;1.75;;;1.13;;
7027;SDS011;3555;53.248;10.336;2022-09-12T09:50:49;1.73;;;1.50;;
7027;SDS011;3555;53.248;10.336;2022-09-12T09:53:23;1.85;;;0.98;;
7027;SDS011;3555;53.248;10.336;2022-09-12T09:55:54;1.15;;;1.00;;
7027;SDS011;3555;53.248;10.336;2022-09-12T09:58:28;1.30;;;1.10;;
7027;SDS011;3555;53.248;10.336;2022-09-12T10:00:57;2.28;;;1.48;;
7027;SDS011;3555;53.248;10.336;2022-09-12T10:03:29;1.27;;;1.10;;
7027;SDS011;3555;53.248;10.336;2022-09-12T10:05:58;1.65;;;1.15;;
7027;SDS011;3555;53.248;10.336;2022-09-12T10:08:27;2.53;;;1.00;;
7027;SDS011;3555;53.248;10.336;2022-09-12T10:10:56;1.40;;;1.00;;
7027;SDS011;3555;53.248;10.336;2022-09-12T10:13:34;2.80;;;1.08;;
7027;SDS011;3555;53.248;10.336;2022-09-12T10:16:08;1.42;;;1.00;;
7027;SDS011;3555;53.248;10.336;2022-09-12T10:18:44;1.20;;;0.90;;
7027;SDS011;3555;53.248;10.336;2022-09-12T10:21:12;2.30;;;1.10;;
7027;SDS011;3555;53.248;10.336;2022-09-12T10:23:45;2.42;;;1.33;;
7027;SDS011;3555;53.248;10.336;2022-09-12T10:26:16;1.20;;;1.08;;
7027;SDS011;3555;53.248;10.336;2022-09-12T10:28:48;1.40;;;0.98;;
7027;SDS011;3555;53.248;10.336;2022-09-12T10:31:22;1.67;;;1.10;;
7027;SDS011;3555;53.248;10.336;2022-09-12T10:33:53;1.50;;;1.08;;
7027;SDS011;3555;53.248;10.336;2022-09-12T10:36:22;1.52;;;1.00;;
7027;SDS011;3555;53.248;10.336;2022-09-12T10:38:50;1.10;;;0.90;;
7027;SDS011;3555;53.248;10.336;2022-09-12T10:41:19;1.52;;;1.00;;
7027;SDS011;3555;53.248;10.336;2022-09-12T10:43:48;1.20;;;0.90;;
7027;SDS011;3555;53.248;10.336;2022-09-12T10:46:28;1.52;;;0.90;;
7027;SDS011;3555;53.248;10.336;2022-09-12T10:49:12;1.00;;;0.70;;
7027;SDS011;3555;53.248;10.336;2022-09-12T10:51:46;1.40;;;0.75;;
7027;SDS011;3555;53.248;10.336;2022-09-12T10:54:14;1.55;;;0.90;;
7027;SDS011;3555;53.248;10.336;2022-09-12T10:56:46;1.00;;;0.70;;
7027;SDS011;3555;53.248;10.336;2022-09-12T10:59:53;1.23;;;0.90;;
7027;SDS011;3555;53.248;10.336;2022-09-12T11:02:32;2.25;;;0.77;;
7027;SDS011;3555;53.248;10.336;2022-09-12T11:05:12;1.17;;;0.88;;
7027;SDS011;3555;53.248;10.336;2022-09-12T11:07:45;2.80;;;0.82;;
7027;SDS011;3555;53.248;10.336;2022-09-12T11:10:16;1.77;;;0.82;;
7027;SDS011;3555;53.248;10.336;2022-09-12T11:13:00;1.20;;;0.80;;
7027;SDS011;3555;53.248;10.336;2022-09-12T11:15:41;1.00;;;0.88;;
7027;SDS011;3555;53.248;10.336;2022-09-12T11:18:24;1.75;;;0.82;;
7027;SDS011;3555;53.248;10.336;2022-09-12T11:21:05;1.25;;;0.80;;
7027;SDS011;3555;53.248;10.336;2022-09-12T11:23:46;1.83;;;0.90;;
7027;SDS011;3555;53.248;10.336;2022-09-12T11:26:40;2.00;;;1.10;;
7027;SDS011;3555;53.248;10.336;2022-09-12T11:29:15;1.08;;;0.80;;
7027;SDS011;3555;53.248;10.336;2022-09-12T11:32:01;1.40;;;0.82;;
7027;SDS011;3555;53.248;10.336;2022-09-12T11:34:41;1.20;;;0.90;;
7027;SDS011;3555;53.248;10.336;2022-09-12T11:37:29;2.17;;;0.73;;
7027;SDS011;3555;53.248;10.336;2022-09-12T11:40:19;1.70;;;0.95;;
7027;SDS011;3555;53.248;10.336;2022-09-12T11:42:54;1.52;;;0.88;;
7027;SDS011;3555;53.248;10.336;2022-09-12T11:45:25;1.20;;;0.80;;
7027;SDS011;3555;53.248;10.336;2022-09-12T11:47:56;1.48;;;0.90;;
7027;SDS011;3555;53.248;10.336;2022-09-12T11:50:29;1.73;;;0.88;;
7027;SDS011;3555;53.248;10.336;2022-09-12T11:52:59;1.23;;;1.00;;
7027;SDS011;3555;53.248;10.336;2022-09-12T11:55:31;1.30;;;1.00;;
7027;SDS011;3555;53.248;10.336;2022-09-12T11:58:12;1.83;;;0.80;;
7027;SDS011;3555;53.248;10.336;2022-09-12T12:00:40;1.27;;;0.77;;
7027;SDS011;3555;53.248;10.336;2022-09-12T12:03:14;1.95;;;0.90;;
7027;SDS011;3555;53.248;10.336;2022-09-12T12:05:46;1.35;;;0.90;;
7027;SDS011;3555;53.248;10.336;2022-09-12T12:08:18;1.17;;;0.90;;
7027;SDS011;3555;53.248;10.336;2022-09-12T12:10:47;1.23;;;1.00;;
7027;SDS011;3555;53.248;10.336;2022-09-12T12:13:20;1.23;;;0.90;;
7027;SDS011;3555;53.248;10.336;2022-09-12T12:15:51;1.52;;;0.90;;
7027;SDS011;3555;53.248;10.336;2022-09-12T12:18:24;1.80;;;1.00;;
7027;SDS011;3555;53.248;10.336;2022-09-12T12:20:53;1.30;;;1.05;;
7027;SDS011;3555;53.248;10.336;2022-09-12T12:23:22;1.80;;;1.35;;
7027;SDS011;3555;53.248;10.336;2022-09-12T12:25:51;1.55;;;1.00;;
7027;SDS011;3555;53.248;10.336;2022-09-12T12:31:22;2.45;;;0.98;;
7027;SDS011;3555;53.248;10.336;2022-09-12T12:33:54;1.30;;;1.08;;
7027;SDS011;3555;53.248;10.336;2022-09-12T12:36:45;1.50;;;1.10;;
7027;SDS011;3555;53.248;10.336;2022-09-12T12:45:57;1.20;;;0.90;;
7027;SDS011;3555;53.248;10.336;2022-09-12T12:54:46;2.42;;;1.10;;
7027;SDS011;3555;53.248;10.336;2022-09-12T12:57:22;1.58;;;0.90;;
7027;SDS011;3555;53.248;10.336;2022-09-12T13:00:00;1.20;;;0.80;;
7027;SDS011;3555;53.248;10.336;2022-09-12T13:02:31;0.90;;;0.80;;
7027;SDS011;3555;53.248;10.336;2022-09-12T13:05:03;5.05;;;1.50;;
7027;SDS011;3555;53.248;10.336;2022-09-12T13:07:33;1.60;;;0.90;;
7027;SDS011;3555;53.248;10.336;2022-09-12T13:10:03;1.90;;;1.10;;
7027;SDS011;3555;53.248;10.336;2022-09-12T13:12:32;1.10;;;0.90;;
7027;SDS011;3555;53.248;10.336;2022-09-12T13:15:01;1.85;;;1.05;;
7027;SDS011;3555;53.248;10.336;2022-09-12T13:17:49;1.33;;;0.90;;
7027;SDS011;3555;53.248;10.336;2022-09-12T13:20:18;1.50;;;0.90;;
7027;SDS011;3555;53.248;10.336;2022-09-12T13:22:49;1.60;;;0.80;;
7027;SDS011;3555;53.248;10.336;2022-09-12T13:25:18;1.17;;;0.88;;
7027;SDS011;3555;53.248;10.336;2022-09-12T13:27:57;1.20;;;0.95;;
7027;SDS011;3555;53.248;10.336;2022-09-12T13:30:26;1.33;;;0.90;;
7027;SDS011;3555;53.248;10.336;2022-09-12T13:32:55;1.10;;;1.00;;
7027;SDS011;3555;53.248;10.336;2022-09-12T13:35:27;3.25;;;0.80;;
7027;SDS011;3555;53.248;10.336;2022-09-12T13:38:06;1.15;;;0.98;;
7027;SDS011;3555;53.248;10.336;2022-09-12T13:40:50;2.03;;;1.05;;
7027;SDS011;3555;53.248;10.336;2022-09-12T13:43:29;1.20;;;0.80;;
7027;SDS011;3555;53.248;10.336;2022-09-12T13:46:02;2.83;;;1.10;;
7027;SDS011;3555;53.248;10.336;2022-09-12T13:48:30;1.00;;;0.90;;
7027;SDS011;3555;53.248;10.336;2022-09-12T13:50:59;1.27;;;0.85;;
7027;SDS011;3555;53.248;10.336;2022-09-12T13:53:28;1.55;;;0.93;;
7027;SDS011;3555;53.248;10.336;2022-09-12T13:55:58;1.20;;;0.90;;
7027;SDS011;3555;53.248;10.336;2022-09-12T13:58:26;2.30;;;1.60;;
7027;SDS011;3555;53.248;10.336;2022-09-12T14:01:00;1.77;;;1.10;;
7027;SDS011;3555;53.248;10.336;2022-09-12T14:03:31;1.83;;;1.13;;
7027;SDS011;3555;53.248;10.336;2022-09-12T14:06:18;1.63;;;1.33;;
7027;SDS011;3555;53.248;10.336;2022-09-12T14:08:46;2.92;;;1.15;;
7027;SDS011;3555;53.248;10.336;2022-09-12T14:11:22;1.60;;;1.17;;
7027;SDS011;3555;53.248;10.336;2022-09-12T14:13:51;5.03;;;1.27;;
7027;SDS011;3555;53.248;10.336;2022-09-12T14:16:20;1.75;;;1.33;;
7027;SDS011;3555;53.248;10.336;2022-09-12T14:18:48;2.35;;;1.42;;
7027;SDS011;3555;53.248;10.336;2022-09-12T14:21:29;3.15;;;1.10;;
7027;SDS011;3555;53.248;10.336;2022-09-12T14:23:59;1.60;;;1.40;;
7027;SDS011;3555;53.248;10.336;2022-09-12T14:26:29;1.50;;;1.30;;
7027;SDS011;3555;53.248;10.336;2022-09-12T14:29:00;1.20;;;1.00;;
7027;SDS011;3555;53.248;10.336;2022-09-12T14:31:31;1.40;;;1.20;;
7027;SDS011;3555;53.248;10.336;2022-09-12T14:34:09;3.92;;;1.35;;
7027;SDS011;3555;53.248;10.336;2022-09-12T14:36:41;2.15;;;1.40;;
7027;SDS011;3555;53.248;10.336;2022-09-12T14:39:15;1.50;;;1.35;;
7027;SDS011;3555;53.248;10.336;2022-09-12T14:41:47;1.90;;;1.20;;
7027;SDS011;3555;53.248;10.336;2022-09-12T14:44:15;1.33;;;1.10;;
7027;SDS011;3555;53.248;10.336;2022-09-12T14:46:44;1.92;;;1.35;;
7027;SDS011;3555;53.248;10.336;2022-09-12T14:49:13;2.97;;;1.30;;
7027;SDS011;3555;53.248;10.336;2022-09-12T14:51:47;1.88;;;1.40;;
7027;SDS011;3555;53.248;10.336;2022-09-12T14:54:33;1.73;;;1.35;;
7027;SDS011;3555;53.248;10.336;2022-09-12T14:57:02;2.15;;;1.10;;
7027;SDS011;3555;53.248;10.336;2022-09-12T14:59:36;2.40;;;1.30;;
7027;SDS011;3555;53.248;10.336;2022-09-12T15:02:10;1.88;;;1.42;;
7027;SDS011;3555;53.248;10.336;2022-09-12T15:04:47;2.65;;;1.50;;
7027;SDS011;3555;53.248;10.336;2022-09-12T15:07:29;3.42;;;1.40;;
7027;SDS011;3555;53.248;10.336;2022-09-12T15:09:59;2.55;;;1.55;;
7027;SDS011;3555;53.248;10.336;2022-09-12T15:12:27;3.00;;;1.73;;
7027;SDS011;3555;53.248;10.336;2022-09-12T15:14:55;2.22;;;1.70;;
7027;SDS011;3555;53.248;10.336;2022-09-12T15:17:24;1.75;;;1.50;;
7027;SDS011;3555;53.248;10.336;2022-09-12T15:19:51;3.25;;;1.48;;
7027;SDS011;3555;53.248;10.336;2022-09-12T15:22:18;1.98;;;1.55;;
7027;SDS011;3555;53.248;10.336;2022-09-12T15:24:48;2.05;;;1.58;;
7027;SDS011;3555;53.248;10.336;2022-09-12T15:27:15;1.75;;;1.50;;
7027;SDS011;3555;53.248;10.336;2022-09-12T15:29:42;1.63;;;1.52;;
7027;SDS011;3555;53.248;10.336;2022-09-12T15:32:09;2.15;;;1.85;;
7027;SDS011;3555;53.248;10.336;2022-09-12T15:34:47;2.17;;;1.80;;
7027;SDS011;3555;53.248;10.336;2022-09-12T15:37:13;2.78;;;1.75;;
7027;SDS011;3555;53.248;10.336;2022-09-12T15:39:42;3.60;;;1.50;;
7027;SDS011;3555;53.248;10.336;2022-09-12T15:42:10;1.95;;;1.58;;
7027;SDS011;3555;53.248;10.336;2022-09-12T15:44:38;2.00;;;1.70;;
7027;SDS011;3555;53.248;10.336;2022-09-12T15:47:05;2.00;;;1.80;;
7027;SDS011;3555;53.248;10.336;2022-09-12T15:49:32;2.58;;;1.70;;